sensor_id;sensor_type;location;lat;lon;timestamp;temperature;humidity
9414;DHT22;4746;35.664;139.738;2022-11-20T00:01:31;13.40;1.00
9414;DHT22;4746;35.664;139.738;2022-11-20T00:04:00;13.50;1.00
9414;DHT22;4746;35.664;139.738;2022-11-20T00:06:29;13.50;1.00
9414;DHT22;4746;35.664;139.738;2022-11-20T00:08:58;13.60;1.00
9414;DHT22;4746;35.664;139.738;2022-11-20T00:11:29;13.60;1.00
9414;DHT22;4746;35.664;139.738;2022-11-20T00:14:00;13.60;1.00
9414;DHT22;4746;35.664;139.738;2022-11-20T00:16:31;13.60;1.00
9414;DHT22;4746;35.664;139.738;2022-11-20T00:18:59;13.70;1.00
9414;DHT22;4746;35.664;139.738;2022-11-20T00:21:28;13.70;1.00
9414;DHT22;4746;35.664;139.738;2022-11-20T00:23:57;13.70;1.00
9414;DHT22;4746;35.664;139.738;2022-11-20T00:26:27;13.80;1.00
9414;DHT22;4746;35.664;139.738;2022-11-20T00:28:57;13.70;1.00
9414;DHT22;4746;35.664;139.738;2022-11-20T00:31:26;13.70;1.00
9414;DHT22;4746;35.664;139.738;2022-11-20T00:33:55;13.70;1.00
9414;DHT22;4746;35.664;139.738;2022-11-20T00:36:25;13.70;1.00
9414;DHT22;4746;35.664;139.738;2022-11-20T00:38:56;13.80;1.00
9414;DHT22;4746;35.664;139.738;2022-11-20T00:41:26;13.80;1.00
9414;DHT22;4746;35.664;139.738;2022-11-20T00:43:55;13.70;1.00
9414;DHT22;4746;35.664;139.738;2022-11-20T00:46:25;13.70;1.00
9414;DHT22;4746;35.664;139.738;2022-11-20T00:48:53;13.70;1.00
9414;DHT22;4746;35.664;139.738;2022-11-20T00:51:24;13.70;1.00
9414;DHT22;4746;35.664;139.738;2022-11-20T00:53:58;13.70;1.00
9414;DHT22;4746;35.664;139.738;2022-11-20T00:56:28;13.70;1.00
9414;DHT22;4746;35.664;139.738;2022-11-20T00:58:58;13.70;1.00
9414;DHT22;4746;35.664;139.738;2022-11-20T01:01:27;13.70;1.00
9414;DHT22;4746;35.664;139.738;2022-11-20T01:03:57;13.80;1.00
9414;DHT22;4746;35.664;139.738;2022-11-20T01:06:37;13.90;1.00
9414;DHT22;4746;35.664;139.738;2022-11-20T01:09:09;13.90;1.00
9414;DHT22;4746;35.664;139.738;2022-11-20T01:11:41;14.00;99.90
9414;DHT22;4746;35.664;139.738;2022-11-20T01:14:14;14.10;99.90
9414;DHT22;4746;35.664;139.738;2022-11-20T01:16:46;14.10;99.90
9414;DHT22;4746;35.664;139.738;2022-11-20T01:19:18;14.20;99.90
9414;DHT22;4746;35.664;139.738;2022-11-20T01:21:50;14.30;99.90
9414;DHT22;4746;35.664;139.738;2022-11-20T01:24:20;14.30;99.90
9414;DHT22;4746;35.664;139.738;2022-11-20T01:26:50;14.50;99.90
9414;DHT22;4746;35.664;139.738;2022-11-20T01:29:23;14.50;99.90
9414;DHT22;4746;35.664;139.738;2022-11-20T01:31:52;14.70;99.90
9414;DHT22;4746;35.664;139.738;2022-11-20T01:34:22;14.70;99.90
9414;DHT22;4746;35.664;139.738;2022-11-20T01:36:51;14.80;99.90
9414;DHT22;4746;35.664;139.738;2022-11-20T01:39:22;14.70;99.90
9414;DHT22;4746;35.664;139.738;2022-11-20T01:41:53;14.70;99.90
9414;DHT22;4746;35.664;139.738;2022-11-20T01:44:58;14.60;99.90
9414;DHT22;4746;35.664;139.738;2022-11-20T01:47:40;14.50;99.90
9414;DHT22;4746;35.664;139.738;2022-11-20T01:50:16;14.50;99.90
9414;DHT22;4746;35.664;139.738;2022-11-20T01:53:07;14.40;99.90
9414;DHT22;4746;35.664;139.738;2022-11-20T01:55:49;14.30;99.90
9414;DHT22;4746;35.664;139.738;2022-11-20T01:58:28;14.30;99.90
9414;DHT22;4746;35.664;139.738;2022-11-20T02:01:03;14.30;99.90
9414;DHT22;4746;35.664;139.738;2022-11-20T02:03:33;14.30;99.90
9414;DHT22;4746;35.664;139.738;2022-11-20T02:08:55;14.30;99.90
9414;DHT22;4746;35.664;139.738;2022-11-20T02:11:23;14.30;99.90
9414;DHT22;4746;35.664;139.738;2022-11-20T02:13:51;14.20;99.90
9414;DHT22;4746;35.664;139.738;2022-11-20T02:16:27;14.20;99.90
9414;DHT22;4746;35.664;139.738;2022-11-20T02:19:02;14.30;99.90
9414;DHT22;4746;35.664;139.738;2022-11-20T02:21:37;14.30;99.90
9414;DHT22;4746;35.664;139.738;2022-11-20T02:24:15;14.20;99.90
9414;DHT22;4746;35.664;139.738;2022-11-20T02:32:05;14.30;99.90
9414;DHT22;4746;35.664;139.738;2022-11-20T02:34:32;14.40;99.90
9414;DHT22;4746;35.664;139.738;2022-11-20T02:37:00;14.40;99.90
9414;DHT22;4746;35.664;139.738;2022-11-20T02:39:28;14.40;99.90
9414;DHT22;4746;35.664;139.738;2022-11-20T02:41:56;14.40;99.90
9414;DHT22;4746;35.664;139.738;2022-11-20T02:44:24;14.40;99.90
9414;DHT22;4746;35.664;139.738;2022-11-20T02:46:52;14.40;99.90
9414;DHT22;4746;35.664;139.738;2022-11-20T02:49:19;14.40;99.90
9414;DHT22;4746;35.664;139.738;2022-11-20T02:51:47;14.40;99.90
9414;DHT22;4746;35.664;139.738;2022-11-20T02:54:14;14.50;99.90
9414;DHT22;4746;35.664;139.738;2022-11-20T02:56:42;14.50;99.90
9414;DHT22;4746;35.664;139.738;2022-11-20T02:59:10;14.60;99.90
9414;DHT22;4746;35.664;139.738;2022-11-20T03:01:37;14.60;99.90
9414;DHT22;4746;35.664;139.738;2022-11-20T03:04:05;14.60;99.90
9414;DHT22;4746;35.664;139.738;2022-11-20T03:06:33;14.60;99.90
9414;DHT22;4746;35.664;139.738;2022-11-20T03:09:01;14.60;99.90
9414;DHT22;4746;35.664;139.738;2022-11-20T03:11:28;14.60;99.90
9414;DHT22;4746;35.664;139.738;2022-11-20T03:13:56;14.50;99.90
9414;DHT22;4746;35.664;139.738;2022-11-20T03:16:24;14.50;99.90
9414;DHT22;4746;35.664;139.738;2022-11-20T03:18:52;14.50;99.90
9414;DHT22;4746;35.664;139.738;2022-11-20T03:21:20;14.50;99.90
9414;DHT22;4746;35.664;139.738;2022-11-20T03:23:48;14.40;99.90
9414;DHT22;4746;35.664;139.738;2022-11-20T03:26:21;14.50;99.90
9414;DHT22;4746;35.664;139.738;2022-11-20T03:28:52;14.40;99.90
9414;DHT22;4746;35.664;139.738;2022-11-20T03:31:26;14.50;99.90
9414;DHT22;4746;35.664;139.738;2022-11-20T03:33:57;14.50;99.90
9414;DHT22;4746;35.664;139.738;2022-11-20T03:36:25;14.50;99.90
9414;DHT22;4746;35.664;139.738;2022-11-20T03:38:57;14.50;99.90
9414;DHT22;4746;35.664;139.738;2022-11-20T03:41:30;14.50;99.90
9414;DHT22;4746;35.664;139.738;2022-11-20T03:44:01;14.50;99.90
9414;DHT22;4746;35.664;139.738;2022-11-20T03:46:30;14.60;99.90
9414;DHT22;4746;35.664;139.738;2022-11-20T03:48:58;14.60;99.90
9414;DHT22;4746;35.664;139.738;2022-11-20T03:51:28;14.60;99.90
9414;DHT22;4746;35.664;139.738;2022-11-20T03:53:59;14.60;99.90
9414;DHT22;4746;35.664;139.738;2022-11-20T03:56:32;14.60;99.90
9414;DHT22;4746;35.664;139.738;2022-11-20T03:59:04;14.60;99.90
9414;DHT22;4746;35.664;139.738;2022-11-20T04:01:36;14.70;99.90
9414;DHT22;4746;35.664;139.738;2022-11-20T04:04:04;14.70;99.90
9414;DHT22;4746;35.664;139.738;2022-11-20T04:06:37;14.70;99.90
9414;DHT22;4746;35.664;139.738;2022-11-20T04:09:06;14.80;99.90
9414;DHT22;4746;35.664;139.738;2022-11-20T04:11:36;14.80;99.90
9414;DHT22;4746;35.664;139.738;2022-11-20T04:14:14;14.90;99.90
9414;DHT22;4746;35.664;139.738;2022-11-20T04:16:43;15.00;99.90
9414;DHT22;4746;35.664;139.738;2022-11-20T04:19:12;15.00;99.90
9414;DHT22;4746;35.664;139.738;2022-11-20T04:21:43;15.10;99.90
9414;DHT22;4746;35.664;139.738;2022-11-20T04:24:11;15.10;99.90
9414;DHT22;4746;35.664;139.738;2022-11-20T04:26:40;15.10;99.90
9414;DHT22;4746;35.664;139.738;2022-11-20T04:29:11;15.00;99.90
9414;DHT22;4746;35.664;139.738;2022-11-20T04:31:39;15.10;99.90
9414;DHT22;4746;35.664;139.738;2022-11-20T04:34:07;15.00;99.90
9414;DHT22;4746;35.664;139.738;2022-11-20T04:36:35;15.00;99.90
9414;DHT22;4746;35.664;139.738;2022-11-20T04:39:05;15.00;99.90
9414;DHT22;4746;35.664;139.738;2022-11-20T04:41:35;15.00;99.90
9414;DHT22;4746;35.664;139.738;2022-11-20T04:44:05;15.00;99.90
9414;DHT22;4746;35.664;139.738;2022-11-20T04:46:41;15.00;99.90
9414;DHT22;4746;35.664;139.738;2022-11-20T04:49:11;15.00;99.90
9414;DHT22;4746;35.664;139.738;2022-11-20T04:51:38;15.00;99.90
9414;DHT22;4746;35.664;139.738;2022-11-20T04:54:06;14.90;99.90
9414;DHT22;4746;35.664;139.738;2022-11-20T04:56:33;14.90;99.90
9414;DHT22;4746;35.664;139.738;2022-11-20T04:59:02;14.90;99.90
9414;DHT22;4746;35.664;139.738;2022-11-20T05:01:30;14.90;99.90
9414;DHT22;4746;35.664;139.738;2022-11-20T05:03:58;14.90;99.90
9414;DHT22;4746;35.664;139.738;2022-11-20T05:06:26;14.90;99.90
9414;DHT22;4746;35.664;139.738;2022-11-20T05:08:54;14.90;99.90
9414;DHT22;4746;35.664;139.738;2022-11-20T05:11:22;14.90;99.90
9414;DHT22;4746;35.664;139.738;2022-11-20T05:13:51;14.90;99.90
9414;DHT22;4746;35.664;139.738;2022-11-20T05:16:21;14.80;99.90
9414;DHT22;4746;35.664;139.738;2022-11-20T05:18:51;14.80;99.90
9414;DHT22;4746;35.664;139.738;2022-11-20T05:21:20;14.80;99.90
9414;DHT22;4746;35.664;139.738;2022-11-20T05:23:49;14.80;99.90
9414;DHT22;4746;35.664;139.738;2022-11-20T05:26:18;14.80;99.90
9414;DHT22;4746;35.664;139.738;2022-11-20T05:28:48;14.80;99.90
9414;DHT22;4746;35.664;139.738;2022-11-20T05:31:20;14.70;99.90
9414;DHT22;4746;35.664;139.738;2022-11-20T05:33:49;14.70;99.90
9414;DHT22;4746;35.664;139.738;2022-11-20T05:36:17;14.70;99.90
9414;DHT22;4746;35.664;139.738;2022-11-20T05:38:44;14.70;1.00
9414;DHT22;4746;35.664;139.738;2022-11-20T05:41:19;14.60;1.00
9414;DHT22;4746;35.664;139.738;2022-11-20T05:43:49;14.60;1.00
9414;DHT22;4746;35.664;139.738;2022-11-20T05:46:19;14.60;1.00
9414;DHT22;4746;35.664;139.738;2022-11-20T05:48:47;14.60;1.00
9414;DHT22;4746;35.664;139.738;2022-11-20T05:51:17;14.60;1.00
9414;DHT22;4746;35.664;139.738;2022-11-20T05:53:47;14.60;1.00
9414;DHT22;4746;35.664;139.738;2022-11-20T05:56:19;14.60;1.00
9414;DHT22;4746;35.664;139.738;2022-11-20T05:58:48;14.60;1.00
9414;DHT22;4746;35.664;139.738;2022-11-20T06:01:19;14.60;1.00
9414;DHT22;4746;35.664;139.738;2022-11-20T06:03:49;14.50;1.00
9414;DHT22;4746;35.664;139.738;2022-11-20T06:06:18;14.50;1.00
9414;DHT22;4746;35.664;139.738;2022-11-20T06:08:47;14.50;1.00
9414;DHT22;4746;35.664;139.738;2022-11-20T06:11:16;14.40;1.00
9414;DHT22;4746;35.664;139.738;2022-11-20T06:13:44;14.50;1.00
9414;DHT22;4746;35.664;139.738;2022-11-20T06:16:15;14.40;1.00
9414;DHT22;4746;35.664;139.738;2022-11-20T06:18:44;14.40;99.90
9414;DHT22;4746;35.664;139.738;2022-11-20T06:21:18;14.30;99.90
9414;DHT22;4746;35.664;139.738;2022-11-20T06:23:47;14.30;1.00
9414;DHT22;4746;35.664;139.738;2022-11-20T06:26:24;14.30;1.00
9414;DHT22;4746;35.664;139.738;2022-11-20T06:28:54;14.20;99.90
9414;DHT22;4746;35.664;139.738;2022-11-20T06:31:25;14.20;1.00
9414;DHT22;4746;35.664;139.738;2022-11-20T06:33:53;14.20;1.00
9414;DHT22;4746;35.664;139.738;2022-11-20T06:36:22;14.10;1.00
9414;DHT22;4746;35.664;139.738;2022-11-20T06:38:50;14.20;1.00
9414;DHT22;4746;35.664;139.738;2022-11-20T06:41:20;14.20;99.90
9414;DHT22;4746;35.664;139.738;2022-11-20T06:43:49;14.10;1.00
9414;DHT22;4746;35.664;139.738;2022-11-20T06:46:18;14.00;1.00
9414;DHT22;4746;35.664;139.738;2022-11-20T06:48:47;13.90;1.00
9414;DHT22;4746;35.664;139.738;2022-11-20T06:51:15;13.80;99.90
9414;DHT22;4746;35.664;139.738;2022-11-20T06:53:43;13.80;1.00
9414;DHT22;4746;35.664;139.738;2022-11-20T06:56:10;13.80;1.00
9414;DHT22;4746;35.664;139.738;2022-11-20T06:58:38;13.80;1.00
9414;DHT22;4746;35.664;139.738;2022-11-20T07:01:12;13.70;1.00
9414;DHT22;4746;35.664;139.738;2022-11-20T07:03:43;13.70;1.00
9414;DHT22;4746;35.664;139.738;2022-11-20T07:06:10;13.60;1.00
9414;DHT22;4746;35.664;139.738;2022-11-20T07:08:38;13.60;1.00
9414;DHT22;4746;35.664;139.738;2022-11-20T07:11:07;13.50;1.00
9414;DHT22;4746;35.664;139.738;2022-11-20T07:13:35;13.50;1.00
9414;DHT22;4746;35.664;139.738;2022-11-20T07:16:04;13.50;1.00
9414;DHT22;4746;35.664;139.738;2022-11-20T07:18:34;13.50;1.00
9414;DHT22;4746;35.664;139.738;2022-11-20T07:21:04;13.50;1.00
9414;DHT22;4746;35.664;139.738;2022-11-20T07:23:33;13.50;1.00
9414;DHT22;4746;35.664;139.738;2022-11-20T07:26:09;13.40;1.00
9414;DHT22;4746;35.664;139.738;2022-11-20T07:28:38;13.40;1.00
9414;DHT22;4746;35.664;139.738;2022-11-20T07:31:06;13.40;1.00
9414;DHT22;4746;35.664;139.738;2022-11-20T07:33:33;13.40;1.00
9414;DHT22;4746;35.664;139.738;2022-11-20T07:36:01;13.40;1.00
9414;DHT22;4746;35.664;139.738;2022-11-20T07:38:29;13.40;1.00
9414;DHT22;4746;35.664;139.738;2022-11-20T07:40:57;13.40;1.00
9414;DHT22;4746;35.664;139.738;2022-11-20T07:43:27;13.30;1.00
9414;DHT22;4746;35.664;139.738;2022-11-20T07:45:59;13.30;1.00
9414;DHT22;4746;35.664;139.738;2022-11-20T07:48:26;13.30;35.50
9414;DHT22;4746;35.664;139.738;2022-11-20T07:50:55;13.20;33.20
9414;DHT22;4746;35.664;139.738;2022-11-20T07:53:23;13.20;84.50
9414;DHT22;4746;35.664;139.738;2022-11-20T07:55:51;13.10;99.90
9414;DHT22;4746;35.664;139.738;2022-11-20T07:58:20;13.10;99.90
9414;DHT22;4746;35.664;139.738;2022-11-20T08:00:48;13.10;99.90
9414;DHT22;4746;35.664;139.738;2022-11-20T08:03:16;13.10;99.90
9414;DHT22;4746;35.664;139.738;2022-11-20T08:05:43;13.10;99.90
9414;DHT22;4746;35.664;139.738;2022-11-20T08:08:11;13.10;99.90
9414;DHT22;4746;35.664;139.738;2022-11-20T08:10:38;13.00;99.90
9414;DHT22;4746;35.664;139.738;2022-11-20T08:13:06;13.00;99.90
9414;DHT22;4746;35.664;139.738;2022-11-20T08:15:53;12.90;99.90
9414;DHT22;4746;35.664;139.738;2022-11-20T08:18:21;12.90;99.90
9414;DHT22;4746;35.664;139.738;2022-11-20T08:20:48;12.90;99.90
9414;DHT22;4746;35.664;139.738;2022-11-20T08:23:16;12.90;99.90
9414;DHT22;4746;35.664;139.738;2022-11-20T08:25:43;12.80;99.90
9414;DHT22;4746;35.664;139.738;2022-11-20T08:28:15;12.80;99.90
9414;DHT22;4746;35.664;139.738;2022-11-20T08:30:43;12.80;99.90
9414;DHT22;4746;35.664;139.738;2022-11-20T08:33:12;12.80;99.90
9414;DHT22;4746;35.664;139.738;2022-11-20T08:35:39;12.70;99.90
9414;DHT22;4746;35.664;139.738;2022-11-20T08:38:08;12.70;99.90
9414;DHT22;4746;35.664;139.738;2022-11-20T08:40:36;12.60;99.90
9414;DHT22;4746;35.664;139.738;2022-11-20T08:43:03;12.60;99.90
9414;DHT22;4746;35.664;139.738;2022-11-20T08:45:31;12.60;99.90
9414;DHT22;4746;35.664;139.738;2022-11-20T08:48:03;12.60;99.90
9414;DHT22;4746;35.664;139.738;2022-11-20T08:50:31;12.60;99.90
9414;DHT22;4746;35.664;139.738;2022-11-20T08:53:07;12.50;99.90
9414;DHT22;4746;35.664;139.738;2022-11-20T08:55:35;12.50;99.90
9414;DHT22;4746;35.664;139.738;2022-11-20T08:58:07;12.50;99.90
9414;DHT22;4746;35.664;139.738;2022-11-20T09:00:35;12.50;99.90
9414;DHT22;4746;35.664;139.738;2022-11-20T09:03:03;12.40;99.90
9414;DHT22;4746;35.664;139.738;2022-11-20T09:05:30;12.40;99.90
9414;DHT22;4746;35.664;139.738;2022-11-20T09:08:00;12.50;99.90
9414;DHT22;4746;35.664;139.738;2022-11-20T09:10:28;12.40;99.90
9414;DHT22;4746;35.664;139.738;2022-11-20T09:12:56;12.40;99.90
9414;DHT22;4746;35.664;139.738;2022-11-20T09:15:24;12.40;99.90
9414;DHT22;4746;35.664;139.738;2022-11-20T09:17:53;12.40;99.90
9414;DHT22;4746;35.664;139.738;2022-11-20T09:20:22;12.40;99.90
9414;DHT22;4746;35.664;139.738;2022-11-20T09:22:50;12.40;99.90
9414;DHT22;4746;35.664;139.738;2022-11-20T09:25:18;12.50;99.90
9414;DHT22;4746;35.664;139.738;2022-11-20T09:27:45;12.50;99.90
9414;DHT22;4746;35.664;139.738;2022-11-20T09:30:14;12.50;99.90
9414;DHT22;4746;35.664;139.738;2022-11-20T09:32:42;12.50;99.90
9414;DHT22;4746;35.664;139.738;2022-11-20T09:35:10;12.50;99.90
9414;DHT22;4746;35.664;139.738;2022-11-20T09:37:38;12.50;99.90
9414;DHT22;4746;35.664;139.738;2022-11-20T09:40:06;12.60;99.90
9414;DHT22;4746;35.664;139.738;2022-11-20T09:45:54;12.90;99.90
9414;DHT22;4746;35.664;139.738;2022-11-20T09:48:42;13.00;99.90
9414;DHT22;4746;35.664;139.738;2022-11-20T09:54:41;13.20;99.90
9414;DHT22;4746;35.664;139.738;2022-11-20T09:57:12;13.30;99.90
9414;DHT22;4746;35.664;139.738;2022-11-20T09:59:51;13.40;99.90
9414;DHT22;4746;35.664;139.738;2022-11-20T10:02:37;13.30;99.90
9414;DHT22;4746;35.664;139.738;2022-11-20T10:08:44;13.20;99.90
9414;DHT22;4746;35.664;139.738;2022-11-20T10:12:05;13.20;99.90
9414;DHT22;4746;35.664;139.738;2022-11-20T10:17:23;13.10;99.90
9414;DHT22;4746;35.664;139.738;2022-11-20T10:20:32;13.10;99.90
9414;DHT22;4746;35.664;139.738;2022-11-20T10:23:43;13.00;99.90
9414;DHT22;4746;35.664;139.738;2022-11-20T10:26:43;13.00;99.90
9414;DHT22;4746;35.664;139.738;2022-11-20T10:29:36;12.90;99.90
9414;DHT22;4746;35.664;139.738;2022-11-20T10:32:34;12.90;99.90
9414;DHT22;4746;35.664;139.738;2022-11-20T10:37:46;12.70;99.90
9414;DHT22;4746;35.664;139.738;2022-11-20T10:43:13;12.70;99.90
9414;DHT22;4746;35.664;139.738;2022-11-20T10:46:14;12.70;99.90
9414;DHT22;4746;35.664;139.738;2022-11-20T10:48:48;12.70;99.90
9414;DHT22;4746;35.664;139.738;2022-11-20T10:51:37;12.70;99.90
9414;DHT22;4746;35.664;139.738;2022-11-20T11:00:06;12.70;99.90
9414;DHT22;4746;35.664;139.738;2022-11-20T11:05:54;12.60;99.90
9414;DHT22;4746;35.664;139.738;2022-11-20T11:08:28;12.60;99.90
9414;DHT22;4746;35.664;139.738;2022-11-20T11:11:29;12.50;99.90
9414;DHT22;4746;35.664;139.738;2022-11-20T11:14:13;12.50;99.90
9414;DHT22;4746;35.664;139.738;2022-11-20T11:17:02;12.50;99.90
9414;DHT22;4746;35.664;139.738;2022-11-20T11:19:29;12.40;99.90
9414;DHT22;4746;35.664;139.738;2022-11-20T11:21:57;12.40;99.90
9414;DHT22;4746;35.664;139.738;2022-11-20T11:24:29;12.40;99.90
9414;DHT22;4746;35.664;139.738;2022-11-20T11:27:02;12.40;99.90
9414;DHT22;4746;35.664;139.738;2022-11-20T11:29:37;12.40;99.90
9414;DHT22;4746;35.664;139.738;2022-11-20T11:32:21;12.40;99.90
9414;DHT22;4746;35.664;139.738;2022-11-20T11:35:25;12.40;99.90
9414;DHT22;4746;35.664;139.738;2022-11-20T11:38:04;12.30;99.90
9414;DHT22;4746;35.664;139.738;2022-11-20T11:40:41;12.30;99.90
9414;DHT22;4746;35.664;139.738;2022-11-20T11:43:19;12.30;99.90
9414;DHT22;4746;35.664;139.738;2022-11-20T11:46:32;12.30;99.90
9414;DHT22;4746;35.664;139.738;2022-11-20T11:49:22;12.30;99.90
9414;DHT22;4746;35.664;139.738;2022-11-20T11:52:10;12.40;99.90
9414;DHT22;4746;35.664;139.738;2022-11-20T11:54:58;12.40;99.90
9414;DHT22;4746;35.664;139.738;2022-11-20T11:57:51;12.40;99.90
9414;DHT22;4746;35.664;139.738;2022-11-20T12:01:50;12.40;99.90
9414;DHT22;4746;35.664;139.738;2022-11-20T12:04:42;12.40;99.90
9414;DHT22;4746;35.664;139.738;2022-11-20T12:13:02;12.40;99.90
9414;DHT22;4746;35.664;139.738;2022-11-20T12:15:43;12.30;99.90
9414;DHT22;4746;35.664;139.738;2022-11-20T12:18:19;12.30;99.90
9414;DHT22;4746;35.664;139.738;2022-11-20T12:30:14;12.50;99.90
9414;DHT22;4746;35.664;139.738;2022-11-20T12:33:02;12.50;99.90
9414;DHT22;4746;35.664;139.738;2022-11-20T12:42:13;12.40;99.90
9414;DHT22;4746;35.664;139.738;2022-11-20T12:45:41;12.30;99.90
9414;DHT22;4746;35.664;139.738;2022-11-20T12:48:41;12.30;99.90
9414;DHT22;4746;35.664;139.738;2022-11-20T13:00:10;12.20;99.90
9414;DHT22;4746;35.664;139.738;2022-11-20T13:08:41;12.20;99.90
9414;DHT22;4746;35.664;139.738;2022-11-20T13:20:18;12.20;99.90
9414;DHT22;4746;35.664;139.738;2022-11-20T13:22:48;12.30;99.90
9414;DHT22;4746;35.664;139.738;2022-11-20T13:25:33;12.30;99.90
9414;DHT22;4746;35.664;139.738;2022-11-20T13:28:29;12.30;99.90
9414;DHT22;4746;35.664;139.738;2022-11-20T13:30:58;12.30;99.90
9414;DHT22;4746;35.664;139.738;2022-11-20T13:33:32;12.30;99.90
9414;DHT22;4746;35.664;139.738;2022-11-20T13:36:25;12.30;99.90
9414;DHT22;4746;35.664;139.738;2022-11-20T13:38:56;12.20;99.90
9414;DHT22;4746;35.664;139.738;2022-11-20T13:44:21;12.20;99.90
9414;DHT22;4746;35.664;139.738;2022-11-20T13:47:16;12.20;99.90
9414;DHT22;4746;35.664;139.738;2022-11-20T13:49:47;12.30;99.90
9414;DHT22;4746;35.664;139.738;2022-11-20T13:52:27;12.20;99.90
9414;DHT22;4746;35.664;139.738;2022-11-20T14:01:10;12.30;99.90
9414;DHT22;4746;35.664;139.738;2022-11-20T14:03:43;12.30;99.90
9414;DHT22;4746;35.664;139.738;2022-11-20T14:06:43;12.30;99.90
9414;DHT22;4746;35.664;139.738;2022-11-20T14:09:30;12.20;99.90
9414;DHT22;4746;35.664;139.738;2022-11-20T14:11:59;12.20;99.90
9414;DHT22;4746;35.664;139.738;2022-11-20T14:14:29;12.20;99.90
9414;DHT22;4746;35.664;139.738;2022-11-20T14:17:08;12.20;99.90
9414;DHT22;4746;35.664;139.738;2022-11-20T14:19:45;12.20;99.90
9414;DHT22;4746;35.664;139.738;2022-11-20T14:22:23;12.20;99.90
9414;DHT22;4746;35.664;139.738;2022-11-20T14:27:41;12.10;99.90
9414;DHT22;4746;35.664;139.738;2022-11-20T14:30:18;12.10;99.90
9414;DHT22;4746;35.664;139.738;2022-11-20T14:32:54;12.10;99.90
9414;DHT22;4746;35.664;139.738;2022-11-20T14:35:34;12.10;99.90
9414;DHT22;4746;35.664;139.738;2022-11-20T14:38:04;12.10;99.90
9414;DHT22;4746;35.664;139.738;2022-11-20T14:40:39;12.10;99.90
9414;DHT22;4746;35.664;139.738;2022-11-20T14:46:00;12.00;99.90
9414;DHT22;4746;35.664;139.738;2022-11-20T14:51:34;12.00;99.90
9414;DHT22;4746;35.664;139.738;2022-11-20T14:54:19;12.00;99.90
9414;DHT22;4746;35.664;139.738;2022-11-20T14:57:03;12.00;99.90
9414;DHT22;4746;35.664;139.738;2022-11-20T14:59:32;12.00;99.90
9414;DHT22;4746;35.664;139.738;2022-11-20T15:02:07;12.00;99.90
9414;DHT22;4746;35.664;139.738;2022-11-20T15:04:50;12.00;99.90
9414;DHT22;4746;35.664;139.738;2022-11-20T15:07:33;11.90;99.90
9414;DHT22;4746;35.664;139.738;2022-11-20T15:10:08;11.90;99.90
9414;DHT22;4746;35.664;139.738;2022-11-20T15:12:45;11.90;99.90
9414;DHT22;4746;35.664;139.738;2022-11-20T15:15:44;11.80;99.90
9414;DHT22;4746;35.664;139.738;2022-11-20T15:18:22;11.80;99.90
9414;DHT22;4746;35.664;139.738;2022-11-20T15:21:01;11.80;99.90
9414;DHT22;4746;35.664;139.738;2022-11-20T15:23:30;11.80;99.90
9414;DHT22;4746;35.664;139.738;2022-11-20T15:25:58;11.80;99.90
9414;DHT22;4746;35.664;139.738;2022-11-20T15:30:58;11.80;99.90
9414;DHT22;4746;35.664;139.738;2022-11-20T15:33:28;11.80;99.90
9414;DHT22;4746;35.664;139.738;2022-11-20T15:35:57;11.70;99.90
9414;DHT22;4746;35.664;139.738;2022-11-20T15:38:24;11.70;99.90
9414;DHT22;4746;35.664;139.738;2022-11-20T15:40:52;11.70;99.90
9414;DHT22;4746;35.664;139.738;2022-11-20T15:43:20;11.70;99.90
9414;DHT22;4746;35.664;139.738;2022-11-20T15:46:02;11.70;99.90
9414;DHT22;4746;35.664;139.738;2022-11-20T15:48:54;11.70;99.90
9414;DHT22;4746;35.664;139.738;2022-11-20T15:54:19;11.70;99.90
9414;DHT22;4746;35.664;139.738;2022-11-20T15:56:49;11.70;99.90
9414;DHT22;4746;35.664;139.738;2022-11-20T15:59:20;11.70;99.90
9414;DHT22;4746;35.664;139.738;2022-11-20T16:01:48;11.70;99.90
9414;DHT22;4746;35.664;139.738;2022-11-20T16:04:17;11.80;99.90
9414;DHT22;4746;35.664;139.738;2022-11-20T16:06:44;11.70;99.90
9414;DHT22;4746;35.664;139.738;2022-11-20T16:09:12;11.70;99.90
9414;DHT22;4746;35.664;139.738;2022-11-20T16:11:39;11.70;99.90
9414;DHT22;4746;35.664;139.738;2022-11-20T16:14:10;11.70;99.90
9414;DHT22;4746;35.664;139.738;2022-11-20T16:16:56;11.70;99.90
9414;DHT22;4746;35.664;139.738;2022-11-20T16:19:24;11.70;99.90
9414;DHT22;4746;35.664;139.738;2022-11-20T16:21:51;11.70;99.90
9414;DHT22;4746;35.664;139.738;2022-11-20T16:24:19;11.70;99.90
9414;DHT22;4746;35.664;139.738;2022-11-20T16:26:46;11.70;99.90
9414;DHT22;4746;35.664;139.738;2022-11-20T16:29:14;11.70;99.90
9414;DHT22;4746;35.664;139.738;2022-11-20T16:31:41;11.70;99.90
9414;DHT22;4746;35.664;139.738;2022-11-20T16:34:09;11.70;99.90
9414;DHT22;4746;35.664;139.738;2022-11-20T16:36:39;11.70;99.90
9414;DHT22;4746;35.664;139.738;2022-11-20T16:39:08;11.80;99.90
9414;DHT22;4746;35.664;139.738;2022-11-20T16:41:36;11.80;99.90
9414;DHT22;4746;35.664;139.738;2022-11-20T16:44:09;11.70;99.90
9414;DHT22;4746;35.664;139.738;2022-11-20T16:46:37;11.70;99.90
9414;DHT22;4746;35.664;139.738;2022-11-20T16:49:11;11.70;99.90
9414;DHT22;4746;35.664;139.738;2022-11-20T16:51:40;11.70;99.90
9414;DHT22;4746;35.664;139.738;2022-11-20T16:54:09;11.70;99.90
9414;DHT22;4746;35.664;139.738;2022-11-20T16:56:38;11.70;99.90
9414;DHT22;4746;35.664;139.738;2022-11-20T16:59:06;11.70;99.90
9414;DHT22;4746;35.664;139.738;2022-11-20T17:01:33;11.60;99.90
9414;DHT22;4746;35.664;139.738;2022-11-20T17:04:07;11.60;99.90
9414;DHT22;4746;35.664;139.738;2022-11-20T17:06:37;11.60;99.90
9414;DHT22;4746;35.664;139.738;2022-11-20T17:09:07;11.60;99.90
9414;DHT22;4746;35.664;139.738;2022-11-20T17:11:35;11.60;99.90
9414;DHT22;4746;35.664;139.738;2022-11-20T17:14:03;11.60;99.90
9414;DHT22;4746;35.664;139.738;2022-11-20T17:16:36;11.60;99.90
9414;DHT22;4746;35.664;139.738;2022-11-20T17:19:04;11.60;99.90
9414;DHT22;4746;35.664;139.738;2022-11-20T17:21:33;11.70;99.90
9414;DHT22;4746;35.664;139.738;2022-11-20T17:24:04;11.60;99.90
9414;DHT22;4746;35.664;139.738;2022-11-20T17:26:34;11.70;99.90
9414;DHT22;4746;35.664;139.738;2022-11-20T17:29:09;11.60;99.90
9414;DHT22;4746;35.664;139.738;2022-11-20T17:31:41;11.70;99.90
9414;DHT22;4746;35.664;139.738;2022-11-20T17:34:12;11.70;99.90
9414;DHT22;4746;35.664;139.738;2022-11-20T17:36:41;11.70;99.90
9414;DHT22;4746;35.664;139.738;2022-11-20T17:39:13;11.70;99.90
9414;DHT22;4746;35.664;139.738;2022-11-20T17:41:42;11.70;99.90
9414;DHT22;4746;35.664;139.738;2022-11-20T17:44:11;11.70;99.90
9414;DHT22;4746;35.664;139.738;2022-11-20T17:46:39;11.70;99.90
9414;DHT22;4746;35.664;139.738;2022-11-20T17:49:07;11.70;99.90
9414;DHT22;4746;35.664;139.738;2022-11-20T17:51:34;11.70;99.90
9414;DHT22;4746;35.664;139.738;2022-11-20T17:54:03;11.70;99.90
9414;DHT22;4746;35.664;139.738;2022-11-20T17:56:34;11.70;99.90